Flight Track Log - Related Links

Times and Time Zones

All times are in EDT time to prevent confusion due to time zone crossing. See the UPS2958 flight status page for this flight to view local times or setup timezone preferences in your user account.

Time Position Orientation Groundspeed Altitude Reporting Facility
EDT Latitude Longitude Course Direction KTS MPH feet Rate Location/Type
Fri 04:02:39 PM 38.1969 -85.8271 290° West 221 254 4,300  Level FlightAware ADS-B
Fri 04:03:14 PM 38.2090 -85.8739 242° Southwest 230 265 7,300 2,667 Climbing FlightAware ADS-B
Fri 04:04:45 PM 38.1647 -85.9559 220° Southwest 255 293 9,900 1,703 Climbing FlightAware ADS-B
Fri 04:05:49 PM 38.0965 -86.0278 220° Southwest 303 349 11,700 3,028 Climbing FlightAware ADS-B
Fri 04:06:32 PM 38.0375 -86.0903 220° Southwest 323 372 15,300 3,534 Climbing FlightAware ADS-B
Fri 04:07:02 PM 38.0039 -86.1256 220° Southwest 332 382 16,000 2,129 Climbing FlightAware ADS-B (YPEF)
Fri 04:07:34 PM 37.9682 -86.1640 220° Southwest 348 400 17,500 3,375 Climbing FlightAware ADS-B (YPEF)
Fri 04:08:06 PM 37.9315 -86.2033 224° Southwest 335 386 19,600 4,213 Climbing FlightAware ADS-B (YPEF)
Fri 04:08:21 PM 37.9147 -86.2329 243° Southwest 314 361 20,800 3,931 Climbing FlightAware ADS-B (YPEF)
Fri 04:08:35 PM 37.9088 -86.2552 258° West 311 358 21,500 2,897 Climbing FlightAware ADS-B (YPEF)
Fri 04:08:50 PM 37.9067 -86.2850 270° West 315 362 22,200 2,240 Climbing FlightAware ADS-B
Fri 04:09:50 PM 37.9073 -86.3848 271° West 330 380 24,300 2,300 Climbing FlightAware ADS-B
Fri 04:10:50 PM 37.9107 -86.5152 273° West 346 398 26,800 2,143 Climbing FlightAware ADS-B
Fri 04:11:56 PM 37.9180 -86.6304 276° West 366 421 28,800 1,433 Climbing FlightAware ADS-B
Fri 04:13:04 PM 37.9209 -86.6632 276° West 377 434 30,000 1,576 Climbing FlightAware ADS-B
Fri 04:13:54 PM 37.9373 -86.8526 276° West 371 427 31,900 2,093 Climbing FlightAware ADS-B (YPEF)
Fri 04:14:30 PM 37.9570 -86.9831 288° West 385 443 33,000 1,520 Climbing FlightAware ADS-B (YPEF)
Fri 04:15:09 PM 37.9798 -87.0689 288° West 387 445 33,800 1,132 Climbing FlightAware ADS-B (YPEF)
Fri 04:16:16 PM 38.0128 -87.1917 288° West 385 443 35,000 1,000 Climbing Kansas City Center
Fri 04:17:21 PM 38.0486 -87.3219 289° West 385 443 36,000 480 Climbing Kansas City Center
Fri 04:18:21 PM 38.0844 -87.4531 289° West 387 445 36,000  Level Kansas City Center
Fri 04:19:22 PM 38.1197 -87.5831 289° West 386 444 36,000  Level Kansas City Center
Fri 04:20:26 PM 38.1614 -87.7378 289° West 381 438 36,000  Level Kansas City Center
Fri 04:21:28 PM 38.1950 -87.8628 289° West 377 434 36,000  Level Kansas City Center
Fri 04:22:29 PM 38.2289 -87.9892 289° West 376 433 36,000  Level Kansas City Center
Fri 04:23:32 PM 38.2625 -88.1164 289° West 377 434 36,000  Level Kansas City Center
Fri 04:24:33 PM 38.2967 -88.2447 289° West 378 435 36,000  Level Kansas City Center
Fri 04:25:37 PM 38.3303 -88.3733 288° West 380 437 36,000  Level Kansas City Center
Fri 04:26:37 PM 38.3642 -88.5025 289° West 381 438 36,000  Level Kansas City Center
Fri 04:27:38 PM 38.4044 -88.6567 288° West 381 438 36,000  Level Kansas City Center
Fri 04:28:42 PM 38.4381 -88.7878 288° West 380 437 36,000  Level Kansas City Center
Fri 04:29:43 PM 38.4708 -88.9150 288° West 379 436 36,000  Level Kansas City Center
Fri 04:30:44 PM 38.5028 -89.0397 288° West 377 434 36,000  Level Kansas City Center
Fri 04:31:49 PM 38.5350 -89.1658 288° West 375 432 36,000  Level Kansas City Center
Fri 04:32:49 PM 38.5667 -89.2911 288° West 372 428 36,000  Level Kansas City Center
Fri 04:33:53 PM 38.5994 -89.4214 288° West 370 426 36,000  Level Kansas City Center
Fri 04:34:54 PM 38.6319 -89.5497 288° West 369 425 36,000  Level Kansas City Center
Fri 04:35:55 PM 38.6617 -89.6694 288° West 368 423 36,000  Level Kansas City Center
Fri 04:36:58 PM 38.6989 -89.8186 288° West 368 423 36,000  Level Kansas City Center
Fri 04:38:01 PM 38.7294 -89.9436 287° West 369 425 36,000  Level Kansas City Center
Fri 04:39:02 PM 38.7622 -90.0767 288° West 371 427 36,000  Level Kansas City Center
Fri 04:40:05 PM 38.7936 -90.2044 288° West 373 429 36,000  Level Kansas City Center
Fri 04:41:06 PM 38.8261 -90.3400 287° West 375 432 36,000  Level Kansas City Center
Fri 04:42:09 PM 38.8553 -90.4597 287° West 378 435 36,000  Level Kansas City Center
Fri 04:43:09 PM 38.8772 -90.6189 280° West 378 435 36,000  Level Kansas City Center
Fri 04:44:12 PM 38.8911 -90.7375 279° West 379 436 36,000  Level Kansas City Center
Fri 04:45:14 PM 38.9069 -90.8714 279° West 380 437 36,000  Level Kansas City Center
Fri 04:46:18 PM 38.9258 -91.0331 279° West 381 438 36,000  Level Kansas City Center
Fri 04:47:18 PM 38.9414 -91.1681 278° West 382 440 36,000  Level Kansas City Center
Fri 04:48:20 PM 38.9569 -91.3031 278° West 383 441 36,000  Level Kansas City Center
Fri 04:49:23 PM 38.9719 -91.4381 278° West 383 441 36,000  Level Kansas City Center
Fri 04:50:23 PM 38.9872 -91.5728 278° West 383 441 36,000  Level Kansas City Center
Fri 04:51:27 PM 39.0033 -91.7200 278° West 381 438 36,000  Level Kansas City Center
Fri 04:52:30 PM 39.0181 -91.8533 278° West 379 436 36,000  Level Kansas City Center
Fri 04:53:32 PM 39.0322 -91.9853 278° West 375 432 36,000  Level Kansas City Center
Fri 04:54:33 PM 39.0489 -92.1417 278° West 371 427 36,000  Level Kansas City Center
Fri 04:55:34 PM 39.0625 -92.2708 278° West 368 423 36,000  Level Kansas City Center
Fri 04:56:38 PM 39.0758 -92.3997 278° West 366 421 36,000  Level Kansas City Center
Fri 04:57:39 PM 39.0892 -92.5283 278° West 364 419 36,000  Level Kansas City Center
Fri 04:58:40 PM 39.1022 -92.6572 277° West 364 419 36,000  Level Kansas City Center
Fri 04:59:47 PM 39.1161 -92.7956 277° West 364 419 36,000  Level Kansas City Center
Fri 05:00:48 PM 39.1292 -92.9244 277° West 364 419 36,000  Level Kansas City Center
Fri 05:01:50 PM 39.1419 -93.0539 277° West 365 420 36,000  Level Kansas City Center
Fri 05:02:53 PM 39.1569 -93.2108 277° West 367 422 36,000  Level Kansas City Center
Fri 05:03:26 PM 39.1624 -93.2663 277° West 372 428 36,000  Level FlightAware ADS-B (EGNC / CAX)
Fri 05:03:53 PM 39.1697 -93.3419 277° West 368 423 36,000  Level Kansas City Center
Fri 05:04:57 PM 39.1814 -93.4669 277° West 370 426 36,000  Level Kansas City Center
Fri 05:05:58 PM 39.1956 -93.6150 277° West 371 427 36,000  Level Kansas City Center
Fri 05:06:59 PM 39.2072 -93.7425 277° West 373 429 36,000  Level Kansas City Center
Fri 05:08:03 PM 39.2206 -93.8911 277° West 374 430 36,000  Level Kansas City Center
Fri 05:09:03 PM 39.2322 -94.0189 277° West 374 430 36,000  Level Kansas City Center
Fri 05:10:07 PM 39.2456 -94.1681 277° West 375 432 36,000  Level Kansas City Center
Fri 05:11:09 PM 39.2567 -94.2958 276° West 374 430 36,000  Level Kansas City Center
Fri 05:12:09 PM 39.2694 -94.4442 276° West 374 430 36,000  Level Kansas City Center
Fri 05:13:13 PM 39.2800 -94.5711 276° West 373 429 36,000  Level Kansas City Center
Fri 05:14:13 PM 39.2925 -94.7186 276° West 372 428 36,000  Level Kansas City Center
Fri 05:20:00 PM 39.3530 -95.4758 276° West 363 418 36,000  Level FlightAware ADS-B (EGNC / CAX)
Fri 05:20:49 PM 39.3611 -95.5815 276° West 363 418 36,000  Level FlightAware ADS-B (EGNC / CAX)
Fri 05:21:27 PM 39.3671 -95.6620 276° West 365 420 36,000  Level FlightAware ADS-B (EGNC / CAX)
Fri 05:22:05 PM 39.3734 -95.7461 276° West 367 422 36,000  Level FlightAware ADS-B (EGNC / CAX)
Fri 05:22:48 PM 39.3804 -95.8407 276° West 368 423 36,000  Level FlightAware ADS-B (EGNC / CAX)
Fri 05:23:28 PM 39.3858 -95.9142 275° West 369 425 36,000  Level FlightAware ADS-B (EGNC / CAX)
Fri 05:24:02 PM 39.3871 -96.0024 261° West 369 425 36,000  Level FlightAware ADS-B (EGNC / CAX)
Fri 05:24:35 PM 39.3808 -96.0608 261° West 367 422 36,000  Level Kansas City Center
Fri 05:25:38 PM 39.3683 -96.1894 263° West 368 423 36,000  Level Kansas City Center
Fri 05:26:39 PM 39.3544 -96.3208 262° West 369 425 36,000  Level Kansas City Center
Fri 05:27:40 PM 39.3247 -96.4494 253° West 372 428 36,000  Level Kansas City Center
Fri 05:28:43 PM 39.2897 -96.6011 253° West 373 429 36,000  Level Kansas City Center
Fri 05:29:47 PM 39.2614 -96.7247 254° West 374 430 36,000  Level Kansas City Center
Fri 05:30:48 PM 39.2289 -96.8692 254° West 375 432 36,000  Level Kansas City Center
Fri 05:31:48 PM 39.2303 -96.9969 271° West 375 432 36,000  Level Kansas City Center
Fri 05:32:53 PM 39.2431 -97.1456 276° West 374 430 36,000  Level Kansas City Center
Fri 05:33:54 PM 39.2550 -97.2728 277° West 374 430 36,000  Level Kansas City Center
Fri 05:34:55 PM 39.2667 -97.4006 277° West 374 430 36,000  Level Kansas City Center
Fri 05:35:58 PM 39.2806 -97.5581 277° West 374 430 36,000  Level Kansas City Center
Fri 05:36:59 PM 39.2922 -97.6911 277° West 374 430 36,000  Level Kansas City Center
Fri 05:38:01 PM 39.3039 -97.8239 277° West 372 428 36,000  Level Kansas City Center
Fri 05:39:04 PM 39.3147 -97.9497 276° West 370 426 36,000  Level Kansas City Center
Fri 05:40:05 PM 39.3272 -98.0981 276° West 368 423 36,000  Level Kansas City Center
Fri 05:41:07 PM 39.3372 -98.2158 276° West 366 421 36,000  Level Kansas City Center
Fri 05:42:11 PM 39.3500 -98.3719 276° West 365 420 36,000  Level Kansas City Center
Fri 05:43:12 PM 39.3606 -98.5028 276° West 365 420 36,000  Level Kansas City Center
Fri 05:44:15 PM 39.3714 -98.6353 276° West 365 420 36,000  Level Kansas City Center
Fri 05:45:15 PM 39.3811 -98.7606 276° West 365 420 36,000  Level Kansas City Center
Fri 05:46:19 PM 39.3925 -98.9061 276° West 366 421 36,000  Level Kansas City Center
Fri 05:47:19 PM 39.4022 -99.0372 276° West 367 422 36,000  Level Kansas City Center
Fri 05:48:21 PM 39.4122 -99.1686 276° West 368 423 36,000  Level Kansas City Center
Fri 05:49:25 PM 39.4222 -99.3003 276° West 368 423 36,000  Level Kansas City Center
Fri 05:50:26 PM 39.4317 -99.4322 275° West 369 425 36,000  Level Kansas City Center
Fri 05:51:27 PM 39.4425 -99.5842 275° West 369 425 36,000  Level Kansas City Center
Fri 05:52:31 PM 39.4519 -99.7169 275° West 370 426 36,000  Level Kansas City Center
Fri 05:53:34 PM 39.4611 -99.8500 275° West 370 426 36,000  Level Kansas City Center
Fri 05:54:54 PM 39.4736 -100.0347 275° West 371 427 36,000  Level Denver Center
Fri 05:55:56 PM 39.4828 -100.1831 275° West 369 425 36,000  Level Denver Center
Fri 06:01:10 PM 39.5273 -100.8783 274° West 369 425 36,000  Level FlightAware ADS-B
Fri 06:02:31 PM 39.5377 -101.0555 274° West 368 423 36,000  Level FlightAware ADS-B
Fri 06:03:13 PM 39.5425 -101.1367 275° West 366 421 36,000  Level FlightAware ADS-B
Fri 06:03:57 PM 39.5485 -101.2428 274° West 366 421 36,000  Level FlightAware ADS-B
Fri 06:04:36 PM 39.5517 -101.2993 274° West 366 421 36,000  Level FlightAware ADS-B (EGHH / BOH)
Fri 06:05:09 PM 39.5569 -101.3929 274° West 366 421 36,000  Level FlightAware ADS-B
Fri 06:05:46 PM 39.5619 -101.4833 274° West 365 420 36,000  Level FlightAware ADS-B (EGHH / BOH)
Fri 06:06:20 PM 39.5660 -101.5588 274° West 365 420 36,000  Level FlightAware ADS-B (EGHH / BOH)
Fri 06:06:53 PM 39.5696 -101.6245 274° West 364 419 36,000  Level FlightAware ADS-B
Fri 06:07:38 PM 39.5730 -101.6924 274° West 365 420 36,000  Level FlightAware ADS-B
Fri 06:08:18 PM 39.5794 -101.8128 274° West 364 419 36,000  Level FlightAware ADS-B (EGHH / BOH)
Fri 06:08:50 PM 39.5831 -101.8846 274° West 364 419 36,000  Level FlightAware ADS-B (EGHH / BOH)
Fri 06:09:31 PM 39.5869 -101.9615 274° West 364 419 36,000  Level FlightAware ADS-B
Fri 06:10:11 PM 39.5908 -102.0388 274° West 364 419 36,000  Level FlightAware ADS-B (EGHH / BOH)
Fri 06:11:06 PM 39.5974 -102.1745 273° West 363 418 36,000  Level FlightAware ADS-B (EGHH / BOH)
Fri 06:11:42 PM 39.6004 -102.2371 274° West 364 419 36,000  Level FlightAware ADS-B
Fri 06:12:21 PM 39.6025 -102.2803 274° West 363 418 36,000  Level FlightAware ADS-B (EGHH / BOH)
Fri 06:12:58 PM 39.6092 -102.4207 273° West 363 418 36,000  Level FlightAware ADS-B (EGHH / BOH)
Fri 06:13:28 PM 39.6114 -102.4722 273° West 362 417 36,000  Level FlightAware ADS-B
Fri 06:14:00 PM 39.6149 -102.5490 274° West 363 418 36,000  Level FlightAware ADS-B (EGHH / BOH)
Fri 06:14:38 PM 39.6181 -102.6188 274° West 364 419 36,000  Level FlightAware ADS-B
Fri 06:15:08 PM 39.6218 -102.7020 273° West 365 420 36,000  Level FlightAware ADS-B (EGHH / BOH)
Fri 06:15:46 PM 39.6254 -102.7826 273° West 366 421 36,000  Level FlightAware ADS-B
Fri 06:16:18 PM 39.6285 -102.8553 273° West 366 421 36,000  Level FlightAware ADS-B
Fri 06:16:49 PM 39.6313 -102.9225 273° West 366 421 36,000  Level FlightAware ADS-B
Fri 06:17:23 PM 39.6343 -102.9965 273° West 366 421 36,000  Level FlightAware ADS-B (EGHH / BOH)
Fri 06:17:53 PM 39.6370 -103.0623 273° West 368 423 36,000  Level FlightAware ADS-B (EGHH / BOH)
Fri 06:18:26 PM 39.6399 -103.1332 273° West 368 423 36,000  Level FlightAware ADS-B (EGHH / BOH)
Fri 06:19:04 PM 39.6434 -103.2171 273° West 369 425 36,000  Level FlightAware ADS-B
Fri 06:19:40 PM 39.6465 -103.2981 273° West 369 425 36,000  Level FlightAware ADS-B (EGHH / BOH)
Fri 06:20:10 PM 39.6491 -103.3669 273° West 369 425 36,000  Level FlightAware ADS-B (EGHH / BOH)
Fri 06:20:42 PM 39.6516 -103.4350 273° West 369 425 36,000  Level FlightAware ADS-B (EGHH / BOH)
Fri 06:21:15 PM 39.6545 -103.5087 273° West 369 425 36,000  Level FlightAware ADS-B (EGHH / BOH)
Fri 06:21:50 PM 39.6573 -103.5848 273° West 368 423 36,000  Level FlightAware ADS-B
Fri 06:22:22 PM 39.6597 -103.6559 273° West 369 425 36,000  Level FlightAware ADS-B (EGHH / BOH)
Fri 06:22:53 PM 39.6622 -103.7248 273° West 369 425 36,000  Level FlightAware ADS-B (EGHH / BOH)
Fri 06:23:29 PM 39.6648 -103.7991 273° West 368 423 36,000  Level FlightAware ADS-B
Fri 06:23:59 PM 39.6671 -103.8694 273° West 369 425 36,000  Level FlightAware ADS-B (EGHH / BOH)
Fri 06:24:48 PM 39.6709 -103.9789 272° West 371 427 36,000  Level FlightAware ADS-B
Fri 06:25:27 PM 39.6737 -104.0660 272° West 371 427 36,000  Level FlightAware ADS-B (EGHH / BOH)
Fri 06:26:01 PM 39.6760 -104.1377 273° West 371 427 36,000  Level FlightAware ADS-B
Fri 06:26:33 PM 39.6781 -104.2060 272° West 371 427 36,000  Level FlightAware ADS-B (EGHH / BOH)
Fri 06:27:05 PM 39.6804 -104.2813 272° West 370 426 36,000  Level FlightAware ADS-B (EGHH / BOH)
Fri 06:27:45 PM 39.6828 -104.3644 272° West 372 428 36,000  Level FlightAware ADS-B (EGHH / BOH)
Fri 06:28:15 PM 39.6849 -104.4347 272° West 372 428 36,000  Level FlightAware ADS-B (EGHH / BOH)
Fri 06:28:45 PM 39.6870 -104.5052 272° West 372 428 36,000  Level FlightAware ADS-B (EGHH / BOH)
Fri 06:29:17 PM 39.6889 -104.5729 272° West 373 429 36,000  Level FlightAware ADS-B (EGHH / BOH)
Fri 06:30:00 PM 39.6894 -104.6718 269° West 371 427 36,000  Level FlightAware ADS-B (EGHH / BOH)
Fri 06:30:40 PM 39.6881 -104.7547 269° West 372 428 36,000  Level FlightAware ADS-B (EGHH / BOH)
Fri 06:31:14 PM 39.6868 -104.8323 269° West 373 429 36,000  Level FlightAware ADS-B (EGHH / BOH)
Fri 06:31:55 PM 39.6852 -104.9221 269° West 373 429 36,000  Level FlightAware ADS-B
Fri 06:32:26 PM 39.6839 -104.9904 269° West 375 432 36,000  Level FlightAware ADS-B
Fri 06:32:56 PM 39.6827 -105.0622 269° West 374 430 36,000  Level FlightAware ADS-B
Fri 06:33:29 PM 39.6812 -105.1388 269° West 375 432 36,000  Level FlightAware ADS-B (EGHH / BOH)
Fri 06:34:04 PM 39.6796 -105.2180 269° West 376 433 36,000  Level FlightAware ADS-B (EGHH / BOH)
Fri 06:34:37 PM 39.6781 -105.2927 268° West 376 433 36,000  Level FlightAware ADS-B (EGHH / BOH)
Fri 06:35:11 PM 39.6765 -105.3673 268° West 378 435 36,000  Level FlightAware ADS-B (EGHH / BOH)
Fri 06:35:44 PM 39.6748 -105.4450 268° West 380 437 36,000  Level FlightAware ADS-B
Fri 06:36:20 PM 39.6732 -105.5168 268° West 381 438 36,000  Level FlightAware ADS-B
Fri 06:36:53 PM 39.6715 -105.5885 268° West 381 438 36,000  Level FlightAware ADS-B (EGHH / BOH)
Fri 06:37:26 PM 39.6695 -105.6724 268° West 381 438 36,000  Level FlightAware ADS-B
Fri 06:37:57 PM 39.6678 -105.7457 268° West 381 438 36,000  Level FlightAware ADS-B (EGHH / BOH)
Fri 06:38:27 PM 39.6660 -105.8155 268° West 381 438 36,000  Level FlightAware ADS-B (EGHH / BOH)
Fri 06:38:58 PM 39.6642 -105.8835 268° West 381 438 36,000  Level FlightAware ADS-B
Fri 06:39:38 PM 39.6619 -105.9724 268° West 381 438 36,000  Level FlightAware ADS-B
Fri 06:40:10 PM 39.6600 -106.0463 268° West 381 438 36,000  Level FlightAware ADS-B
Fri 06:40:43 PM 39.6578 -106.1248 268° West 381 438 36,000  Level FlightAware ADS-B (EGHH / BOH)
Fri 06:41:19 PM 39.6553 -106.2086 268° West 380 437 36,000  Level FlightAware ADS-B (EGHH / BOH)
Fri 06:41:50 PM 39.6534 -106.2746 268° West 379 436 36,000  Level FlightAware ADS-B (EGHH / BOH)
Fri 06:42:22 PM 39.6512 -106.3498 268° West 378 435 36,000  Level FlightAware ADS-B
Fri 06:43:03 PM 39.6484 -106.4401 268° West 379 436 36,000  Level FlightAware ADS-B (EGHH / BOH)
Fri 06:43:44 PM 39.6454 -106.5367 268° West 379 436 36,000  Level FlightAware ADS-B (KGUC)
Fri 06:44:15 PM 39.6432 -106.6052 268° West 378 435 36,000  Level FlightAware ADS-B (EGHH / BOH)
Fri 06:44:55 PM 39.6405 -106.6915 267° West 377 434 36,000  Level FlightAware ADS-B
Fri 06:45:25 PM 39.6380 -106.7616 267° West 378 435 36,000  Level FlightAware ADS-B
Fri 06:45:55 PM 39.6357 -106.8328 268° West 378 435 36,000  Level FlightAware ADS-B
Fri 06:46:25 PM 39.6334 -106.9009 267° West 377 434 36,000  Level FlightAware ADS-B
Fri 06:46:55 PM 39.6311 -106.9660 268° West 377 434 36,000  Level FlightAware ADS-B
Fri 06:47:26 PM 39.6285 -107.0378 267° West 377 434 36,000  Level FlightAware ADS-B
Fri 06:47:56 PM 39.6266 -107.0901 267° West 377 434 36,000  Level FlightAware ADS-B
Fri 06:48:36 PM 39.6227 -107.1964 267° West 379 436 36,000  Level FlightAware ADS-B
Fri 06:49:06 PM 39.6201 -107.2643 267° West 379 436 36,000  Level FlightAware ADS-B
Fri 06:49:36 PM 39.6176 -107.3323 267° West 380 437 36,000  Level FlightAware ADS-B
Fri 06:50:07 PM 39.6149 -107.4011 267° West 381 438 36,000  Level FlightAware ADS-B
Fri 06:50:46 PM 39.6113 -107.4914 267° West 382 440 36,000  Level FlightAware ADS-B
Fri 06:51:17 PM 39.6086 -107.5588 267° West 382 440 36,000  Level FlightAware ADS-B (KGUC)
Fri 06:51:47 PM 39.6058 -107.6293 267° West 383 441 36,000  Level FlightAware ADS-B (KGUC)
Fri 06:52:18 PM 39.6028 -107.7015 267° West 383 441 36,000  Level FlightAware ADS-B
Fri 06:52:48 PM 39.6000 -107.7694 267° West 383 441 36,000  Level FlightAware ADS-B
Fri 06:53:19 PM 39.5970 -107.8408 267° West 383 441 36,000  Level FlightAware ADS-B
Fri 06:54:03 PM 39.5926 -107.9398 267° West 383 441 36,000  Level FlightAware ADS-B
Fri 06:54:35 PM 39.5893 -108.0108 267° West 383 441 36,000  Level FlightAware ADS-B
Fri 06:55:05 PM 39.5864 -108.0785 267° West 383 441 36,000  Level FlightAware ADS-B
Fri 06:55:37 PM 39.5831 -108.1545 267° West 384 442 36,000  Level FlightAware ADS-B (KGUC)
Fri 06:56:07 PM 39.5801 -108.2168 267° West 384 442 36,000  Level FlightAware ADS-B (KGUC)
Fri 06:56:37 PM 39.5766 -108.2930 266° West 384 442 36,000  Level FlightAware ADS-B (KGUC)
Fri 06:57:07 PM 39.5735 -108.3608 266° West 384 442 36,000  Level FlightAware ADS-B (KGUC)
Fri 06:57:37 PM 39.5701 -108.4281 267° West 385 443 36,000  Level FlightAware ADS-B (KGUC)
Fri 06:58:07 PM 39.5670 -108.4942 266° West 385 443 36,000  Level FlightAware ADS-B (KGUC)
Fri 06:58:45 PM 39.5626 -108.5850 266° West 385 443 36,000  Level FlightAware ADS-B
Fri 06:59:17 PM 39.5589 -108.6587 266° West 385 443 36,000  Level FlightAware ADS-B (KGUC)
Fri 06:59:48 PM 39.5553 -108.7286 266° West 385 443 36,000  Level FlightAware ADS-B
Fri 07:00:25 PM 39.5523 -108.7889 266° West 386 444 36,000  Level FlightAware ADS-B (KGUC)
Fri 07:00:55 PM 39.5474 -108.8829 266° West 386 444 36,000  Level FlightAware ADS-B (KGUC)
Fri 07:01:27 PM 39.5437 -108.9560 266° West 387 445 36,000  Level FlightAware ADS-B (KGUC)
Fri 07:01:57 PM 39.5400 -109.0264 266° West 387 445 36,000  Level FlightAware ADS-B (KGUC)
Fri 07:02:27 PM 39.5364 -109.0923 266° West 388 447 36,000  Level FlightAware ADS-B (KGUC)
Fri 07:02:57 PM 39.5324 -109.1656 266° West 388 447 36,000  Level FlightAware ADS-B (KGUC)
Fri 07:03:29 PM 39.5284 -109.2386 266° West 388 447 36,000  Level FlightAware ADS-B
Fri 07:03:59 PM 39.5245 -109.3100 266° West 389 448 36,000  Level FlightAware ADS-B
Fri 07:04:30 PM 39.5207 -109.3794 266° West 389 448 36,000  Level FlightAware ADS-B
Fri 07:05:01 PM 39.5166 -109.4502 266° West 389 448 36,000  Level FlightAware ADS-B
Fri 07:05:31 PM 39.5135 -109.5060 266° West 389 448 36,000  Level FlightAware ADS-B
Fri 07:06:02 PM 39.5089 -109.5839 266° West 390 449 36,000  Level FlightAware ADS-B
Fri 07:06:48 PM 39.5024 -109.6963 266° West 389 448 36,000  Level FlightAware ADS-B
Fri 07:07:18 PM 39.4985 -109.7617 266° West 389 448 36,000  Level FlightAware ADS-B
Fri 07:07:49 PM 39.4937 -109.8419 266° West 389 448 36,000  Level FlightAware ADS-B (KGUC)
Fri 07:08:23 PM 39.4891 -109.9172 266° West 390 449 36,000  Level FlightAware ADS-B (KGUC)
Fri 07:08:53 PM 39.4850 -109.9848 265° West 390 449 36,000  Level FlightAware ADS-B (KGUC)
Fri 07:09:34 PM 39.4789 -110.0829 265° West 391 450 36,000  Level FlightAware ADS-B
Fri 07:10:05 PM 39.4747 -110.1508 266° West 391 450 36,000  Level FlightAware ADS-B
Fri 07:10:44 PM 39.4685 -110.2494 265° West 392 451 36,000  Level FlightAware ADS-B
Fri 07:11:15 PM 39.4640 -110.3185 265° West 392 451 36,000  Level FlightAware ADS-B
Fri 07:11:45 PM 39.4593 -110.3909 265° West 393 452 36,000  Level FlightAware ADS-B
Fri 07:12:17 PM 39.4545 -110.4653 265° West 393 452 36,000  Level FlightAware ADS-B
Fri 07:12:49 PM 39.4501 -110.5306 265° West 393 452 36,000  Level FlightAware ADS-B
Fri 07:13:32 PM 39.4430 -110.6381 265° West 395 455 36,000  Level FlightAware ADS-B
Fri 07:14:11 PM 39.4366 -110.7322 265° West 394 453 36,000  Level FlightAware ADS-B
Fri 07:14:41 PM 39.4319 -110.8022 265° West 395 455 36,000  Level FlightAware ADS-B
Fri 07:15:14 PM 39.4278 -110.8614 265° West 395 455 36,000  Level FlightAware ADS-B
Fri 07:15:45 PM 39.4216 -110.9501 265° West 395 455 36,000  Level FlightAware ADS-B
Fri 07:16:24 PM 39.4150 -111.0447 265° West 394 453 36,000  Level FlightAware ADS-B
Fri 07:16:54 PM 39.4100 -111.1147 265° West 394 453 36,000  Level FlightAware ADS-B
Fri 07:17:27 PM 39.4045 -111.1906 265° West 393 452 36,000  Level FlightAware ADS-B
Fri 07:18:06 PM 39.3980 -111.2810 265° West 392 451 36,000  Level FlightAware ADS-B
Fri 07:18:40 PM 39.3921 -111.3602 265° West 392 451 36,000  Level FlightAware ADS-B
Fri 07:19:15 PM 39.3865 -111.4357 265° West 392 451 36,000  Level FlightAware ADS-B
Fri 07:19:55 PM 39.3794 -111.5328 265° West 392 451 36,000  Level FlightAware ADS-B
Fri 07:20:29 PM 39.3739 -111.6054 264° West 391 450 36,000  Level FlightAware ADS-B
Fri 07:21:03 PM 39.3672 -111.6938 265° West 390 449 36,000  Level FlightAware ADS-B
Fri 07:21:33 PM 39.3626 -111.7530 264° West 391 450 36,000  Level FlightAware ADS-B
Fri 07:21:42 PM 39.3601 -111.7850 265° West 390 449 36,000  Level FlightAware ADS-B
Fri 07:22:13 PM 39.3547 -111.8553 264° West 392 451 36,000  Level FlightAware ADS-B
Fri 07:22:53 PM 39.3475 -111.9477 264° West 393 452 36,000  Level FlightAware ADS-B
Fri 07:23:24 PM 39.3418 -112.0214 265° West 392 451 36,000  Level FlightAware ADS-B
Fri 07:23:56 PM 39.3363 -112.0898 264° West 395 455 36,000  Level FlightAware ADS-B
Fri 07:24:26 PM 39.3300 -112.1653 264° West 396 456 36,000  Level FlightAware ADS-B
Fri 07:25:11 PM 39.3216 -112.2715 265° West 396 456 36,000  Level FlightAware ADS-B (KBTF)
Fri 07:25:48 PM 39.3149 -112.3527 264° West 396 456 36,000  Level FlightAware ADS-B
Fri 07:26:20 PM 39.3084 -112.4313 264° West 396 456 36,000  Level FlightAware ADS-B
Fri 07:26:50 PM 39.3026 -112.5010 264° West 397 457 36,000  Level FlightAware ADS-B
Fri 07:27:23 PM 39.2945 -112.5806 261° West 396 456 36,000  Level FlightAware ADS-B
Fri 07:27:33 PM 39.2917 -112.6047 261° West 396 456 36,000  Level FlightAware ADS-B
Fri 07:28:04 PM 39.2834 -112.6769 262° West 396 456 36,000  Level FlightAware ADS-B
Fri 07:28:37 PM 39.2754 -112.7485 262° West 396 456 36,000  Level FlightAware ADS-B
Fri 07:29:07 PM 39.2673 -112.8222 262° West 396 456 36,000  Level FlightAware ADS-B
Fri 07:29:31 PM 39.2609 -112.8803 262° West 396 456 36,000  Level FlightAware ADS-B
Fri 07:29:50 PM 39.2558 -112.9254 262° West 396 456 36,000  Level FlightAware ADS-B
Fri 07:30:13 PM 39.2504 -112.9744 262° West 397 457 36,000  Level FlightAware ADS-B
Fri 07:30:41 PM 39.2427 -113.0433 263° West 396 456 36,000  Level FlightAware ADS-B (KBTF)
Fri 07:31:23 PM 39.2316 -113.1415 263° West 395 455 36,000  Level FlightAware ADS-B
Fri 07:31:43 PM 39.2263 -113.1880 263° West 395 455 36,000  Level FlightAware ADS-B
Fri 07:32:03 PM 39.2208 -113.2358 263° West 395 455 36,000  Level FlightAware ADS-B
Fri 07:32:23 PM 39.2156 -113.2807 263° West 395 455 36,000  Level FlightAware ADS-B
Fri 07:32:55 PM 39.2070 -113.3558 262° West 397 457 36,000  Level FlightAware ADS-B
Fri 07:33:37 PM 39.1962 -113.4482 261° West 397 457 36,000  Level FlightAware ADS-B
Fri 07:34:07 PM 39.1877 -113.5208 261° West 397 457 36,000  Level FlightAware ADS-B
Fri 07:34:39 PM 39.1794 -113.5905 261° West 398 458 36,000  Level FlightAware ADS-B
Fri 07:35:11 PM 39.1698 -113.6717 262° West 397 457 36,000  Level FlightAware ADS-B
Fri 07:35:42 PM 39.1616 -113.7409 262° West 398 458 36,000  Level FlightAware ADS-B
Fri 07:36:14 PM 39.1524 -113.8174 261° West 398 458 36,000  Level FlightAware ADS-B
Fri 07:38:24 PM 39.1155 -114.1216 261° West 400 460 36,000  Level FlightAware ADS-B
Fri 07:39:40 PM 39.0947 -114.2901 261° West 401 461 36,000  Level FlightAware ADS-B
Fri 07:40:42 PM 39.0747 -114.4492 261° West 400 460 36,000  Level FlightAware ADS-B
Fri 07:41:47 PM 39.0709 -114.4793 261° West 401 461 36,000  Level FlightAware ADS-B
Fri 07:42:37 PM 39.0456 -114.6872 261° West 398 458 36,000  Level Salt Lake Center
Fri 07:43:39 PM 39.0222 -114.8575 260° West 399 459 36,000  Level Salt Lake Center
Fri 07:44:40 PM 39.0028 -114.9989 260° West 400 460 36,000  Level Salt Lake Center
Fri 07:45:42 PM 38.9850 -115.1392 261° West 401 461 36,000  Level Salt Lake Center
Fri 07:46:44 PM 38.9667 -115.2833 261° West 401 461 36,000  Level Salt Lake Center
Fri 07:47:45 PM 38.9439 -115.4503 260° West 427 491 36,000  Level Salt Lake Center
Fri 07:48:47 PM 38.9211 -115.6067 259° West 442 509 36,000  Level Salt Lake Center
Fri 07:49:49 PM 38.9017 -115.7619 261° West 444 511 36,000  Level Salt Lake Center
Fri 07:50:50 PM 38.8794 -115.9175 260° West 444 511 36,000  Level Salt Lake Center
Fri 07:51:52 PM 38.8569 -116.0739 260° West 444 511 36,000  Level Salt Lake Center
Fri 07:52:54 PM 38.8356 -116.2292 260° West 444 511 36,000  Level Salt Lake Center
Fri 07:53:55 PM 38.8125 -116.3850 259° West 444 511 36,000  Level Salt Lake Center
Fri 07:54:33 PM 38.7958 -116.5114 260° West 445 512 36,000  Level Oakland Center
Fri 07:55:34 PM 38.7733 -116.6658 259° West 444 511 36,000  Level Oakland Center
Fri 07:56:36 PM 38.7508 -116.8197 259° West 443 510 36,000  Level Oakland Center
Fri 07:57:37 PM 38.7281 -116.9739 259° West 443 510 36,000  Level Oakland Center
Fri 07:58:38 PM 38.7047 -117.1283 259° West 444 511 36,000  Level Oakland Center
Fri 07:59:40 PM 38.6817 -117.2836 259° West 445 512 36,000  Level Oakland Center
Fri 08:00:41 PM 38.6578 -117.4383 259° West 445 512 36,000  Level Oakland Center
Fri 08:01:42 PM 38.6292 -117.6247 259° West 447 514 36,000  Level Oakland Center
Fri 08:02:44 PM 38.6050 -117.7800 259° West 447 514 36,000  Level Oakland Center
Fri 08:03:45 PM 38.5806 -117.9356 259° West 448 516 36,000 -874 Level Oakland Center
Fri 08:09:29 PM 38.6451 -118.8170 277° West 455 524 30,100 -1,161 Descending FlightAware ADS-B (KSAC)
Fri 08:10:28 PM 38.6595 -118.9675 276° West 467 537 28,200 -1,879 Descending FlightAware ADS-B (KSAC)
Fri 08:11:08 PM 38.6711 -119.0879 276° West 465 535 27,000 -2,354 Descending FlightAware ADS-B (KSAC)
Fri 08:11:47 PM 38.6843 -119.2244 277° West 443 510 25,100 -2,127 Descending FlightAware ADS-B
Fri 08:12:27 PM 38.6909 -119.2962 276° West 429 494 24,200 -805 Descending FlightAware ADS-B (KSAC)
Fri 08:13:09 PM 38.7008 -119.4017 276° West 428 493 24,000 -150 Descending FlightAware ADS-B (KSAC)
Fri 08:13:47 PM 38.7101 -119.4971 277° West 435 501 24,000 -81 Level FlightAware ADS-B (KSAC)
Fri 08:14:23 PM 38.7237 -119.6213 278° West 433 498 23,900 -651 Descending FlightAware ADS-B
Fri 08:15:10 PM 38.7320 -119.6976 277° West 427 491 23,100 -1,744 Descending FlightAware ADS-B (KSAC)
Fri 08:15:49 PM 38.7432 -119.8047 277° West 417 480 21,400 -2,692 Descending FlightAware ADS-B (KSAC)
Fri 08:16:28 PM 38.7528 -119.8983 277° West 411 473 19,600 -2,734 Descending FlightAware ADS-B (KSAC)
Fri 08:17:08 PM 38.7628 -119.9961 276° West 408 470 17,800 -2,593 Descending FlightAware ADS-B (KSAC)
Fri 08:17:49 PM 38.7724 -120.0910 277° West 405 466 16,100 -2,554 Descending FlightAware ADS-B (KSAC)
Fri 08:18:49 PM 38.7785 -120.2333 264° West 394 453 13,500 -2,294 Descending FlightAware ADS-B (KSAC)
Fri 08:19:31 PM 38.7686 -120.3305 262° West 381 438 12,200 -1,500 Descending FlightAware ADS-B (KSAC)
Fri 08:20:09 PM 38.7601 -120.4124 262° West 355 409 11,500 -923 Descending FlightAware ADS-B (KSAC)
Fri 08:20:49 PM 38.7519 -120.4924 262° West 329 379 11,000 -741 Descending FlightAware ADS-B (KSAC)
Fri 08:21:30 PM 38.7440 -120.5698 262° West 309 356 10,500 -684 Descending FlightAware ADS-B (KSAC)
Fri 08:22:08 PM 38.7372 -120.6389 262° West 294 338 10,100 -608 Descending FlightAware ADS-B (KSAC)
Fri 08:22:49 PM 38.7299 -120.7028 261° West 271 312 9,700 -871 Descending FlightAware ADS-B (KSAC)
Fri 08:23:10 PM 38.7260 -120.7357 262° West 265 305 9,200 -1,500 Descending FlightAware ADS-B (KSAC)
Fri 08:23:29 PM 38.7269 -120.7661 277° West 261 300 8,700 -1,538 Descending FlightAware ADS-B (KSAC)
Fri 08:23:49 PM 38.7303 -120.7953 278° West 252 290 8,200 -1,350 Descending FlightAware ADS-B (KSAC)
Fri 08:24:09 PM 38.7336 -120.8243 278° West 243 280 7,800 -1,231 Descending FlightAware ADS-B (KSAC)
Fri 08:24:28 PM 38.7369 -120.8510 278° West 236 272 7,400 -1,317 Descending FlightAware ADS-B (KSAC)
Fri 08:24:50 PM 38.7404 -120.8805 278° West 228 262 6,900 -1,200 Descending FlightAware ADS-B (KSAC)
Fri 08:25:08 PM 38.7434 -120.9055 278° West 221 254 6,600 -900 Descending FlightAware ADS-B (KSAC)
Fri 08:25:30 PM 38.7465 -120.9318 278° West 214 246 6,300 -732 Descending FlightAware ADS-B (KSAC)
Fri 08:25:49 PM 38.7467 -120.9559 254° West 202 232 6,100 -769 Descending FlightAware ADS-B (KSAC)
Fri 08:26:09 PM 38.7378 -120.9765 233° Southwest 193 222 5,800 -750 Descending FlightAware ADS-B (KSAC)
Fri 08:26:29 PM 38.7276 -120.9946 234° Southwest 189 217 5,600 -750 Descending FlightAware ADS-B (KSAC)
Fri 08:26:49 PM 38.7176 -121.0123 233° Southwest 185 213 5,300 -878 Descending FlightAware ADS-B (KSAC)
Fri 08:27:10 PM 38.7071 -121.0306 233° Southwest 179 206 5,000 -769 Descending FlightAware ADS-B (KSAC)
Fri 08:27:28 PM 38.6987 -121.0455 233° Southwest 178 205 4,800 -900 Descending FlightAware ADS-B (KSAC)
Fri 08:27:50 PM 38.6877 -121.0647 234° Southwest 180 207 4,400 -1,050 Descending FlightAware ADS-B (KSAC)
Fri 08:28:08 PM 38.6789 -121.0801 234° Southwest 180 207 4,100 -1,050 Descending FlightAware ADS-B (KSAC)
Fri 08:28:30 PM 38.6676 -121.0998 234° Southwest 180 207 3,700 -1,024 Descending FlightAware ADS-B (KSAC)
Fri 08:28:49 PM 38.6584 -121.1158 233° Southwest 180 207 3,400 -973 Descending FlightAware ADS-B (KSAC)
Fri 08:29:07 PM 38.6494 -121.1315 233° Southwest 180 207 3,100 -1,024 Descending FlightAware ADS-B (KSAC)
Fri 08:29:30 PM 38.6384 -121.1508 234° Southwest 180 207 2,700 -1,000 Descending FlightAware ADS-B (KSAC)
Fri 08:29:49 PM 38.6290 -121.1670 233° Southwest 174 200 2,400 -900 Descending FlightAware ADS-B (KSAC)
Fri 08:30:10 PM 38.6199 -121.1829 233° Southwest 166 191 2,100 -900 Descending FlightAware ADS-B (KSAC)
Fri 08:30:29 PM 38.6105 -121.1992 233° Southwest 153 176 1,800 -923 Descending FlightAware ADS-B (KSAC)
Fri 08:30:49 PM 38.6032 -121.2119 233° Southwest 136 157 1,500 -750 Descending FlightAware ADS-B (KSAC)
Fri 08:31:09 PM 38.5961 -121.2244 234° Southwest 134 154 1,300 -750 Descending FlightAware ADS-B (KSAC)
Fri 08:31:29 PM 38.5887 -121.2371 233° Southwest 133 153 1,000 -750 Descending FlightAware ADS-B (KSAC)
Fri 08:31:49 PM 38.5812 -121.2502 233° Southwest 131 151 800 -632 Descending FlightAware ADS-B (KSAC)
Fri 08:32:07 PM 38.5751 -121.2609 233° Southwest 132 152 600 -750 Descending FlightAware ADS-B (KSAC)
Fri 08:32:29 PM 38.5670 -121.2749 234° Southwest 131 151 300 -395 Descending FlightAware ADS-B (KSAC)
Fri 08:33:23 PM 38.5447 -121.3136 234° Southwest 134 154 100 -222 Descending Oakland Center

Login

Don't have an account? Register now (free) for customized features, flight alerts, and more!